Deora, Colorado
Current Conditions -  °F | °C
As of 10:53 PM on Wednesday 22 Oct 2014 (Local Time) from KLHX Reporting Station
Scattered Clouds Scattered Clouds  
Wind Chill: 56°   Ceiling: Unl
Heat Index: 56°   Visibility: 10mi
Dew Point: 47°   Wind: 7mph
Humidity: 72%   Direction: 130°SE
Pressure: 30.1"   Gusts: NA
Location:  37.8567°N, 103.111°W
Report Text: KLHX 230453Z AUTO 13006KT 10SM FEW039 SCT070 13/08 A3010 RMK AO2 RAB35E48 SLP155 P0000 T01330083
Loading
Personal Weather Stations






























Interactive Weather Map
Tropical Storm Tracking
New forecast layout! Learn more

10-Day Weather Forecast

Advertisements
Track Severe Weather on mobile